In Rescue
 
Open Full Screen Window  High Contrast Mode
Wind Gusting 00 knots
09
November 19, 2019 12:05 PM CST
Weather Information
Wind Direction
  290 °
Wind Speed
  09 kt (10 mph)
Wind Gust
  00 kt (0 mph)
Altimeter
29.75 in
Visibility
10 SM
Temperature
03° C
37° F
Dewpoint
02° C
36° F
Humidity
93%
1hr Rain Fall
00.00 in.
24hr Rain Fall
00.00 in.
Sky Condition
Overcast @ 800 ft
IFR

METAR KBJI 191805Z AUTO 29009KT 10SM OVC008 03/02 A2975 RMK AO2 T00300017

FAA Disclaimer: The data displayed is for advisory purposes only and is not to be used for flight planning or operations.